x

South Brooks (46132) Wave Buoy

5:00 - Wed 20th Aug 2014 All times are PDT. -7 hours from GMT.

  • Sig Wave height 5.2ft
  • Peak Period 10s
  • Wind
    18mph, 22mph gusts
  • Sea Temp 56°f
  • Ar Temp 56°f
  • Sea Pressure 1012.7mb
  • South Brooks
  • South Brooks

More Historic Weather Station data

Upgrade to MSW Pro to gain access to the past 30 days of data for over 8000 Wavebouys and Weather Stations around the globe.

Join Pro

Comparision Forecast

View Surf forecast
   
Qua 08/20 5:00 5ft 10s 18 22 mph 1012.7mb 56f 56f
4:00 5.5ft 6s 20 22 mph 1012.6mb 56f 57f
3:00 5.5ft 6s 20 25 mph 1012.5mb 56f 57f
2:00 5ft 10s 18 22 mph 1012.3mb 56f 57f
1:00 6ft 6s 18 22 mph 1012.3mb 56f 57f
12:00 6ft 9s 20 22 mph 1011.9mb 56f 57f
Ter 08/19 11:00 6ft 10s 20 22 mph 1011.6mb 56f 57f
10:00 6ft 9s 22 27 mph 1011.5mb 56f 57f
9:00 7ft 11s 27 31 mph 1011.1mb 56f 57f
8:00 7ft 11s 27 34 mph 1011.1mb 56f 57f
7:00 7ft 6s 25 29 mph 1011.3mb 56f 58f
6:00 8ft 10s 27 31 mph 1011.3mb 56f 57f
5:00 7.5ft 10s 25 29 mph 1011.4mb 56f 58f
4:00 7.5ft 10s 27 34 mph 1011.4mb 56f 58f
3:00 7ft 10s 29 36 mph 1011.4mb 56f 58f
2:00 7ft 10s 27 34 mph 1011.7mb 56f 58f
1:00 7ft 10s 25 29 mph 1011.9mb 56f 58f
12:00 7ft 10s 25
mph
1012.1mb 57f 58f
11:00 7ft 11s 22 27 mph 1012.4mb 56f 57f
10:00 7ft 11s 20 25 mph 1012.7mb 56f 57f
9:00 7ft 11s 20 25 mph 1012.7mb 56f 57f
8:00 7ft 11s 20 25 mph 1012.4mb 56f 57f
7:00 7ft 11s 22 27 mph 1012.3mb 56f 57f
6:00 6.5ft 9s 20 25 mph 1012.3mb 56f 58f
5:00 7ft 11s 18 22 mph 1012.6mb 56f 57f
4:00 6ft 10s 18 20 mph 1012.9mb 56f 57f
3:00 5.5ft 10s 16 18 mph 1013.1mb 57f 57f
2:00 6ft 10s 13 16 mph 1013.3mb 57f 58f
1:00 5ft 10s 13
mph
1013.8mb 57f 58f
12:00 5.5ft 10s 13 16 mph 1014.2mb 57f 58f
Seg 08/18 11:00 6ft 10s 13 18 mph 1014.1mb 57f 58f
10:00 6ft 10s 11 13 mph 1014.9mb 57f 58f
9:00 6ft 10s 13 18 mph 1015.2mb 57f 58f
8:00 6ft 10s 16 20 mph 1015.1mb 57f 58f
7:00 6ft 9s 18 20 mph 1015.3mb 57f 58f
6:00 6ft 10s 13 16 mph 1016.3mb 56f 58f
5:00 6ft 10s 18 22 mph 1016.6mb 56f 57f
4:00 6ft 10s 18 20 mph 1016.6mb 56f 57f
3:00 6ft 10s 25 29 mph 1016.2mb 56f 58f
2:00 6ft 10s 22 27 mph 1016.6mb 56f 58f
1:00 6ft 10s 22 27 mph 1017.1mb 56f 58f
12:00 6ft 8s 22 27 mph 1016.9mb 56f 58f
11:00 5.5ft 9s 20 25 mph 1017.2mb 56f 58f
10:00 6ft 10s 22 27 mph 1017.6mb 56f 58f
9:00 5ft 10s 22 27 mph 1017.5mb 56f 57f
8:00 5ft 10s 22 25 mph 1017.5mb 55f 57f
7:00 5ft 5s 22 27 mph 1017.4mb 55f 57f
6:00 5ft 9s 22 27 mph 1017.4mb 55f 57f
5:00 5ft 5s 27 29 mph 1017.5mb 55f 57f
4:00 5ft 8s 22 27 mph 1017.9mb 55f 57f
3:00 5ft 5s 18 22 mph 1018.5mb 55f 57f
2:00 5ft 5s 22 25 mph 1018.6mb 55f 57f
12:00 5.5ft 6s 25 29 mph 1019mb 55f 57f
Dom 08/17 11:00 6ft 6s 22 27 mph 1019.5mb 55f 57f
10:00 6.5ft 5s 25 29 mph 1019.5mb 55f 58f
9:00 7ft 6s 25 29 mph 1019.9mb 56f 58f
8:00 6.5ft 6s 25 29 mph 1019.9mb 56f 58f
7:00 7ft 6s 25 31 mph 1020.1mb 56f 58f
6:00 7ft 6s 25 31 mph 1020.2mb 56f 58f
5:00 6ft 10s 25 31 mph 1020.5mb 56f 59f
4:00 5.5ft 5s 25 31 mph 1020.9mb 55f 59f
3:00 5.5ft 5s 22 27 mph 1021mb 56f 58f
2:00 5ft 5s 22 25 mph 1021.3mb 55f 58f
1:00 5ft 10s 20 25 mph 1021.3mb 56f 58f
12:00 5ft 11s 20 27 mph 1021.4mb 56f 58f
11:00 5ft 11s 18 22 mph 1021.4mb 56f 57f
10:00 5ft 10s 18 22 mph 1021.3mb 55f 57f
9:00 5ft 11s 20 22 mph 1021.2mb 55f 57f
8:00 5ft 11s 16 20 mph 1020.7mb 56f 57f
7:00 4.5ft 11s 18 22 mph 1020.8mb 56f 56f
6:00 5ft 10s 20 22 mph 1020.7mb 56f 56f
5:00 5ft 10s 18 22 mph 1020.4mb 56f 57f
4:00 5.5ft 11s 20 25 mph 1020.5mb 56f 57f
3:00 5.5ft 11s 20 25 mph 1020.6mb 56f 58f
2:00 5ft 10s 20 27 mph 1020.4mb 57f 58f
1:00 5ft 13s 20 22 mph 1020.8mb 57f 58f
12:00 4.5ft 12s 20 22 mph 1020.9mb 57f 58f
Sáb 08/16 11:00 4.5ft 17s 20 22 mph 1021mb 57f 58f
10:00 4.5ft 11s 18 22 mph 1021.2mb 57f 59f
9:00 5ft 11s 18 20 mph 1021.2mb 58f 58f
8:00 5ft 11s 18 22 mph 1020.9mb 58f 58f
7:00 5ft 11s 18 22 mph 1020.8mb 58f 58f
6:00 4.5ft 8s 16 18 mph 1021.2mb 58f 59f
5:00 5ft 8s 13 18 mph 1021.4mb 58f 60f
4:00 5ft 10s 18 22 mph 1021.5mb 58f 60f
3:00 5ft 10s 16 20 mph 1021.5mb 58f 60f
2:00 5.5ft 10s 16 18 mph 1021.6mb 58f 60f